sensor_id;sensor_type;location;lat;lon;timestamp;pressure;altitude;pressure_sealevel;temperature;humidity
68988;BME280;56038;46.080;11.116;2022-09-29T00:02:16;97634.78;;;14.14;65.07
68988;BME280;56038;46.080;11.116;2022-09-29T00:07:18;97628.84;;;14.12;64.87
68988;BME280;56038;46.080;11.116;2022-09-29T00:12:20;97629.78;;;14.11;64.80
68988;BME280;56038;46.080;11.116;2022-09-29T00:17:23;97635.34;;;13.96;64.86
68988;BME280;56038;46.080;11.116;2022-09-29T00:22:25;97633.53;;;13.97;64.09
68988;BME280;56038;46.080;11.116;2022-09-29T00:27:26;97619.69;;;14.06;64.51
68988;BME280;56038;46.080;11.116;2022-09-29T00:32:29;97626.34;;;14.10;64.52
68988;BME280;56038;46.080;11.116;2022-09-29T00:37:31;97615.44;;;14.15;64.07
68988;BME280;56038;46.080;11.116;2022-09-29T00:42:32;97622.34;;;14.48;63.24
68988;BME280;56038;46.080;11.116;2022-09-29T00:47:36;97619.13;;;14.23;63.89
68988;BME280;56038;46.080;11.116;2022-09-29T00:52:43;97627.75;;;14.14;63.53
68988;BME280;56038;46.080;11.116;2022-09-29T00:57:49;97623.19;;;14.16;63.31
68988;BME280;56038;46.080;11.116;2022-09-29T01:02:58;97612.81;;;14.15;64.03
68988;BME280;56038;46.080;11.116;2022-09-29T01:08:05;97612.00;;;14.14;64.15
68988;BME280;56038;46.080;11.116;2022-09-29T01:13:11;97609.38;;;14.14;64.32
68988;BME280;56038;46.080;11.116;2022-09-29T01:18:15;97610.00;;;14.06;64.77
68988;BME280;56038;46.080;11.116;2022-09-29T01:24:04;97610.00;;;14.06;65.11
68988;BME280;56038;46.080;11.116;2022-09-29T01:29:32;97624.19;;;14.04;64.53
68988;BME280;56038;46.080;11.116;2022-09-29T01:34:42;97621.47;;;14.05;64.60
68988;BME280;56038;46.080;11.116;2022-09-29T01:39:52;97626.78;;;14.15;64.71
68988;BME280;56038;46.080;11.116;2022-09-29T01:44:59;97610.19;;;14.15;65.06
68988;BME280;56038;46.080;11.116;2022-09-29T01:50:07;97603.03;;;14.17;64.47
68988;BME280;56038;46.080;11.116;2022-09-29T01:55:16;97612.00;;;14.14;64.60
68988;BME280;56038;46.080;11.116;2022-09-29T02:00:19;97607.69;;;14.13;64.13
68988;BME280;56038;46.080;11.116;2022-09-29T02:05:30;97620.13;;;14.11;64.45
68988;BME280;56038;46.080;11.116;2022-09-29T02:10:36;97619.16;;;14.12;64.23
68988;BME280;56038;46.080;11.116;2022-09-29T02:15:44;97615.84;;;14.10;64.52
68988;BME280;56038;46.080;11.116;2022-09-29T02:20:48;97614.88;;;14.11;65.05
68988;BME280;56038;46.080;11.116;2022-09-29T02:25:51;97613.47;;;14.07;64.73
68988;BME280;56038;46.080;11.116;2022-09-29T02:30:54;97611.31;;;14.01;65.25
68988;BME280;56038;46.080;11.116;2022-09-29T02:36:05;97625.81;;;13.95;64.61
68988;BME280;56038;46.080;11.116;2022-09-29T02:41:16;97624.97;;;13.95;64.82
68988;BME280;56038;46.080;11.116;2022-09-29T02:46:31;97635.84;;;13.90;65.16
68988;BME280;56038;46.080;11.116;2022-09-29T02:51:40;97647.31;;;13.89;64.96
68988;BME280;56038;46.080;11.116;2022-09-29T02:56:48;97635.03;;;13.90;65.05
68988;BME280;56038;46.080;11.116;2022-09-29T03:01:56;97640.00;;;13.93;65.17
68988;BME280;56038;46.080;11.116;2022-09-29T03:06:59;97649.28;;;13.97;65.30
68988;BME280;56038;46.080;11.116;2022-09-29T03:12:01;97636.56;;;13.92;65.26
68988;BME280;56038;46.080;11.116;2022-09-29T03:17:02;97640.00;;;13.93;65.33
68988;BME280;56038;46.080;11.116;2022-09-29T03:22:05;97633.53;;;13.97;64.99
68988;BME280;56038;46.080;11.116;2022-09-29T03:27:07;97643.34;;;13.95;65.13
68988;BME280;56038;46.080;11.116;2022-09-29T03:32:10;97629.38;;;13.94;64.99
68988;BME280;56038;46.080;11.116;2022-09-29T03:37:13;97639.63;;;13.97;64.58
68988;BME280;56038;46.080;11.116;2022-09-29T03:42:15;97632.72;;;13.96;64.25
68988;BME280;56038;46.080;11.116;2022-09-29T03:47:16;97619.00;;;13.93;64.70
68988;BME280;56038;46.080;11.116;2022-09-29T03:52:19;97610.50;;;14.00;65.22
68988;BME280;56038;46.080;11.116;2022-09-29T03:57:21;97611.59;;;13.98;64.80
68988;BME280;56038;46.080;11.116;2022-09-29T04:02:23;97624.72;;;13.98;65.48
68988;BME280;56038;46.080;11.116;2022-09-29T04:07:26;97621.97;;;13.99;65.04
68988;BME280;56038;46.080;11.116;2022-09-29T04:12:27;97641.03;;;14.01;65.21
68988;BME280;56038;46.080;11.116;2022-09-29T04:17:29;97638.53;;;14.00;65.54
68988;BME280;56038;46.080;11.116;2022-09-29T04:22:32;97642.00;;;14.00;65.59
68988;BME280;56038;46.080;11.116;2022-09-29T04:27:34;97643.78;;;14.00;65.83
68988;BME280;56038;46.080;11.116;2022-09-29T04:32:36;97639.75;;;13.96;65.53
68988;BME280;56038;46.080;11.116;2022-09-29T04:37:39;97645.13;;;13.94;65.34
68988;BME280;56038;46.080;11.116;2022-09-29T04:42:40;97641.88;;;14.02;65.30
68988;BME280;56038;46.080;11.116;2022-09-29T04:47:42;97639.88;;;13.94;65.73
68988;BME280;56038;46.080;11.116;2022-09-29T04:52:45;97639.06;;;13.94;65.77
68988;BME280;56038;46.080;11.116;2022-09-29T04:57:47;97653.84;;;13.95;66.07
68988;BME280;56038;46.080;11.116;2022-09-29T05:02:49;97661.47;;;13.98;66.28
68988;BME280;56038;46.080;11.116;2022-09-29T05:07:53;97665.03;;;13.97;66.19
68988;BME280;56038;46.080;11.116;2022-09-29T05:12:54;97664.53;;;14.03;65.86
68988;BME280;56038;46.080;11.116;2022-09-29T05:18:00;97666.31;;;14.02;65.71
68988;BME280;56038;46.080;11.116;2022-09-29T05:23:04;97662.88;;;14.02;66.03
68988;BME280;56038;46.080;11.116;2022-09-29T05:28:09;97664.34;;;13.95;65.74
68988;BME280;56038;46.080;11.116;2022-09-29T05:33:11;97676.63;;;13.94;66.09
68988;BME280;56038;46.080;11.116;2022-09-29T05:38:14;97678.03;;;13.98;66.39
68988;BME280;56038;46.080;11.116;2022-09-29T05:43:15;97685.78;;;14.00;66.48
68988;BME280;56038;46.080;11.116;2022-09-29T05:48:17;97698.66;;;14.03;66.17
68988;BME280;56038;46.080;11.116;2022-09-29T05:53:20;97700.09;;;14.07;66.01
68988;BME280;56038;46.080;11.116;2022-09-29T05:58:22;97686.97;;;14.07;65.68
68988;BME280;56038;46.080;11.116;2022-09-29T06:03:24;97699.16;;;14.08;65.86
68988;BME280;56038;46.080;11.116;2022-09-29T06:08:27;97702.38;;;14.00;65.96
68988;BME280;56038;46.080;11.116;2022-09-29T06:13:29;97693.19;;;14.06;65.48
68988;BME280;56038;46.080;11.116;2022-09-29T06:18:30;97690.88;;;14.13;65.98
68988;BME280;56038;46.080;11.116;2022-09-29T06:23:34;97687.03;;;14.17;65.61
68988;BME280;56038;46.080;11.116;2022-09-29T06:28:36;97692.78;;;14.22;65.55
68988;BME280;56038;46.080;11.116;2022-09-29T06:33:38;97692.41;;;14.26;66.23
68988;BME280;56038;46.080;11.116;2022-09-29T06:38:41;97691.41;;;14.38;65.58
68988;BME280;56038;46.080;11.116;2022-09-29T06:43:43;97688.28;;;14.45;65.55
68988;BME280;56038;46.080;11.116;2022-09-29T06:48:45;97680.78;;;14.61;65.03
68988;BME280;56038;46.080;11.116;2022-09-29T06:53:49;97680.78;;;14.61;65.43
68988;BME280;56038;46.080;11.116;2022-09-29T06:58:50;97684.69;;;14.66;65.03
68988;BME280;56038;46.080;11.116;2022-09-29T07:03:52;97678.59;;;14.87;64.56
68988;BME280;56038;46.080;11.116;2022-09-29T07:08:56;97687.97;;;15.01;63.55
68988;BME280;56038;46.080;11.116;2022-09-29T07:13:58;97685.91;;;15.44;61.86
68988;BME280;56038;46.080;11.116;2022-09-29T07:19:00;97687.19;;;15.50;61.51
68988;BME280;56038;46.080;11.116;2022-09-29T07:24:03;97685.00;;;15.15;62.63
68988;BME280;56038;46.080;11.116;2022-09-29T07:29:05;97689.78;;;15.31;61.44
68988;BME280;56038;46.080;11.116;2022-09-29T07:34:06;97678.63;;;15.48;60.56
68988;BME280;56038;46.080;11.116;2022-09-29T07:39:09;97688.81;;;15.41;60.47
68988;BME280;56038;46.080;11.116;2022-09-29T07:44:11;97683.81;;;15.69;60.04
68988;BME280;56038;46.080;11.116;2022-09-29T07:49:13;97682.56;;;15.73;60.38
68988;BME280;56038;46.080;11.116;2022-09-29T07:54:16;97672.53;;;15.97;59.92
68988;BME280;56038;46.080;11.116;2022-09-29T07:59:19;97678.06;;;16.13;59.61
68988;BME280;56038;46.080;11.116;2022-09-29T08:04:21;97680.13;;;16.00;59.31
68988;BME280;56038;46.080;11.116;2022-09-29T08:09:25;97674.88;;;16.39;58.05
68988;BME280;56038;46.080;11.116;2022-09-29T08:14:27;97689.19;;;16.27;58.88
68988;BME280;56038;46.080;11.116;2022-09-29T08:19:28;97681.81;;;16.50;58.65
68988;BME280;56038;46.080;11.116;2022-09-29T08:24:31;97671.97;;;16.23;59.62
68988;BME280;56038;46.080;11.116;2022-09-29T08:29:36;97678.34;;;16.68;57.68
68988;BME280;56038;46.080;11.116;2022-09-29T08:34:37;97688.47;;;16.83;57.15
68988;BME280;56038;46.080;11.116;2022-09-29T08:39:41;97704.56;;;16.31;58.54
68988;BME280;56038;46.080;11.116;2022-09-29T08:44:46;97703.31;;;16.35;58.76
68988;BME280;56038;46.080;11.116;2022-09-29T08:49:52;97702.75;;;16.80;56.33
68988;BME280;56038;46.080;11.116;2022-09-29T08:55:02;97716.38;;;16.46;57.91
68988;BME280;56038;46.080;11.116;2022-09-29T09:00:12;97721.34;;;16.40;57.91
68988;BME280;56038;46.080;11.116;2022-09-29T09:05:26;97709.28;;;16.28;57.90
68988;BME280;56038;46.080;11.116;2022-09-29T09:10:38;97712.03;;;16.36;57.63
68988;BME280;56038;46.080;11.116;2022-09-29T09:16:06;97718.44;;;16.43;58.01
68988;BME280;56038;46.080;11.116;2022-09-29T09:21:17;97734.13;;;16.44;57.35
68988;BME280;56038;46.080;11.116;2022-09-29T09:26:25;97731.59;;;16.24;58.51
68988;BME280;56038;46.080;11.116;2022-09-29T09:31:36;97740.75;;;16.10;59.21
68988;BME280;56038;46.080;11.116;2022-09-29T09:36:44;97721.75;;;16.55;58.29
68988;BME280;56038;46.080;11.116;2022-09-29T09:41:51;97716.38;;;16.46;58.04
68988;BME280;56038;46.080;11.116;2022-09-29T09:46:58;97705.13;;;16.64;58.13
68988;BME280;56038;46.080;11.116;2022-09-29T09:52:03;97694.16;;;16.78;58.08
68988;BME280;56038;46.080;11.116;2022-09-29T09:57:30;97700.53;;;16.66;58.31
68988;BME280;56038;46.080;11.116;2022-09-29T10:02:41;97690.13;;;17.30;57.43
68988;BME280;56038;46.080;11.116;2022-09-29T10:07:44;97690.75;;;17.79;56.07
68988;BME280;56038;46.080;11.116;2022-09-29T10:12:55;97678.78;;;17.85;55.85
68988;BME280;56038;46.080;11.116;2022-09-29T10:18:03;97680.81;;;17.73;55.48
68988;BME280;56038;46.080;11.116;2022-09-29T10:23:26;97677.75;;;17.31;56.23
68988;BME280;56038;46.080;11.116;2022-09-29T10:28:40;97679.13;;;17.72;55.34
68988;BME280;56038;46.080;11.116;2022-09-29T10:33:47;97677.56;;;17.97;55.62
68988;BME280;56038;46.080;11.116;2022-09-29T10:38:51;97681.13;;;17.51;56.19
68988;BME280;56038;46.080;11.116;2022-09-29T10:43:54;97668.00;;;17.41;57.57
68988;BME280;56038;46.080;11.116;2022-09-29T10:49:07;97670.84;;;16.83;61.17
68988;BME280;56038;46.080;11.116;2022-09-29T10:54:14;97677.22;;;16.23;65.40
68988;BME280;56038;46.080;11.116;2022-09-29T10:59:18;97685.81;;;16.05;65.75
68988;BME280;56038;46.080;11.116;2022-09-29T11:04:23;97676.69;;;16.29;66.05
68988;BME280;56038;46.080;11.116;2022-09-29T11:09:28;97686.91;;;15.93;68.91
68988;BME280;56038;46.080;11.116;2022-09-29T11:14:40;97683.44;;;15.83;70.77
68988;BME280;56038;46.080;11.116;2022-09-29T11:19:42;97673.63;;;16.72;69.57
68988;BME280;56038;46.080;11.116;2022-09-29T11:24:58;97669.06;;;16.35;68.31
68988;BME280;56038;46.080;11.116;2022-09-29T11:30:10;97663.50;;;16.38;67.93
68988;BME280;56038;46.080;11.116;2022-09-29T11:35:23;97660.56;;;16.90;66.49
68988;BME280;56038;46.080;11.116;2022-09-29T11:40:33;97656.50;;;17.32;65.45
68988;BME280;56038;46.080;11.116;2022-09-29T11:45:48;97661.41;;;16.52;67.24
68988;BME280;56038;46.080;11.116;2022-09-29T11:51:00;97645.75;;;16.60;67.85
68988;BME280;56038;46.080;11.116;2022-09-29T11:56:16;97646.94;;;16.85;67.77
68988;BME280;56038;46.080;11.116;2022-09-29T12:01:38;97636.31;;;16.76;67.92
68988;BME280;56038;46.080;11.116;2022-09-29T12:06:51;97623.16;;;16.47;69.08
68988;BME280;56038;46.080;11.116;2022-09-29T12:12:01;97614.56;;;16.36;69.37
68988;BME280;56038;46.080;11.116;2022-09-29T12:17:11;97617.59;;;16.41;70.40
68988;BME280;56038;46.080;11.116;2022-09-29T12:22:17;97624.25;;;16.45;69.88
68988;BME280;56038;46.080;11.116;2022-09-29T12:27:21;97629.25;;;16.38;71.24
68988;BME280;56038;46.080;11.116;2022-09-29T12:32:28;97645.63;;;16.23;70.90
68988;BME280;56038;46.080;11.116;2022-09-29T12:37:36;97644.50;;;16.44;71.60
68988;BME280;56038;46.080;11.116;2022-09-29T12:42:50;97655.03;;;16.06;73.75
68988;BME280;56038;46.080;11.116;2022-09-29T12:48:06;97663.63;;;15.79;75.84
68988;BME280;56038;46.080;11.116;2022-09-29T12:53:20;97659.50;;;16.15;76.51
68988;BME280;56038;46.080;11.116;2022-09-29T12:58:29;97651.44;;;16.16;76.15
68988;BME280;56038;46.080;11.116;2022-09-29T13:04:03;97640.38;;;16.13;76.77
68988;BME280;56038;46.080;11.116;2022-09-29T13:09:36;97647.03;;;16.17;77.28
68988;BME280;56038;46.080;11.116;2022-09-29T13:15:26;97649.88;;;15.66;78.61
68988;BME280;56038;46.080;11.116;2022-09-29T13:20:52;97638.44;;;15.96;77.14
68988;BME280;56038;46.080;11.116;2022-09-29T13:26:13;97643.09;;;15.92;77.92
68988;BME280;56038;46.080;11.116;2022-09-29T13:31:20;97635.22;;;15.92;77.63
68988;BME280;56038;46.080;11.116;2022-09-29T13:36:27;97635.94;;;15.94;77.39
68988;BME280;56038;46.080;11.116;2022-09-29T13:41:36;97638.94;;;15.90;77.95
68988;BME280;56038;46.080;11.116;2022-09-29T13:46:39;97642.69;;;15.87;76.22
68988;BME280;56038;46.080;11.116;2022-09-29T13:51:45;97635.59;;;15.78;75.11
68988;BME280;56038;46.080;11.116;2022-09-29T13:56:50;97621.50;;;15.88;77.60
68988;BME280;56038;46.080;11.116;2022-09-29T14:01:58;97630.09;;;15.91;78.46
68988;BME280;56038;46.080;11.116;2022-09-29T14:07:03;97629.53;;;15.87;78.09
68988;BME280;56038;46.080;11.116;2022-09-29T14:12:08;97625.66;;;15.91;78.65
68988;BME280;56038;46.080;11.116;2022-09-29T14:17:19;97628.03;;;15.94;78.95
68988;BME280;56038;46.080;11.116;2022-09-29T14:22:57;97632.16;;;15.87;78.70
68988;BME280;56038;46.080;11.116;2022-09-29T14:28:02;97637.03;;;15.82;77.89
68988;BME280;56038;46.080;11.116;2022-09-29T14:33:09;97650.03;;;15.74;78.18
68988;BME280;56038;46.080;11.116;2022-09-29T14:38:16;97651.81;;;15.73;78.85
68988;BME280;56038;46.080;11.116;2022-09-29T14:43:20;97656.66;;;15.78;79.05
68988;BME280;56038;46.080;11.116;2022-09-29T14:48:29;97669.72;;;15.79;79.13
68988;BME280;56038;46.080;11.116;2022-09-29T14:54:03;97678.31;;;15.81;80.11
68988;BME280;56038;46.080;11.116;2022-09-29T14:59:18;97678.00;;;15.65;79.93
68988;BME280;56038;46.080;11.116;2022-09-29T15:04:23;97690.34;;;15.44;80.21
68988;BME280;56038;46.080;11.116;2022-09-29T15:09:34;97702.59;;;15.54;79.73
68988;BME280;56038;46.080;11.116;2022-09-29T15:14:37;97724.38;;;15.05;82.18
68988;BME280;56038;46.080;11.116;2022-09-29T15:19:51;97737.25;;;15.08;82.03
68988;BME280;56038;46.080;11.116;2022-09-29T15:25:18;97738.19;;;15.28;81.70
68988;BME280;56038;46.080;11.116;2022-09-29T15:30:23;97729.38;;;15.39;81.42
68988;BME280;56038;46.080;11.116;2022-09-29T15:35:27;97737.28;;;15.39;81.75
68988;BME280;56038;46.080;11.116;2022-09-29T15:40:34;97751.31;;;15.49;80.05
68988;BME280;56038;46.080;11.116;2022-09-29T15:45:37;97769.97;;;14.94;82.68
68988;BME280;56038;46.080;11.116;2022-09-29T15:50:41;97779.34;;;15.08;82.83
68988;BME280;56038;46.080;11.116;2022-09-29T15:55:45;97804.97;;;14.95;81.86
68988;BME280;56038;46.080;11.116;2022-09-29T16:00:46;97812.41;;;14.90;82.06
68988;BME280;56038;46.080;11.116;2022-09-29T16:05:59;97809.03;;;15.20;82.01
68988;BME280;56038;46.080;11.116;2022-09-29T16:11:05;97809.34;;;15.26;82.24
68988;BME280;56038;46.080;11.116;2022-09-29T16:16:09;97813.38;;;15.10;82.51
68988;BME280;56038;46.080;11.116;2022-09-29T16:21:14;97817.19;;;15.38;80.59
68988;BME280;56038;46.080;11.116;2022-09-29T16:26:33;97827.06;;;15.04;81.58
68988;BME280;56038;46.080;11.116;2022-09-29T16:31:36;97815.31;;;15.08;81.89
68988;BME280;56038;46.080;11.116;2022-09-29T16:36:38;97807.00;;;15.03;80.56
68988;BME280;56038;46.080;11.116;2022-09-29T16:41:42;97794.84;;;15.11;79.92
68988;BME280;56038;46.080;11.116;2022-09-29T16:46:49;97788.94;;;14.98;79.47
68988;BME280;56038;46.080;11.116;2022-09-29T16:51:53;97801.38;;;14.96;79.16
68988;BME280;56038;46.080;11.116;2022-09-29T16:57:20;97814.00;;;14.81;79.00
68988;BME280;56038;46.080;11.116;2022-09-29T17:02:23;97817.47;;;14.50;79.80
68988;BME280;56038;46.080;11.116;2022-09-29T17:07:25;97824.03;;;14.55;80.53
68988;BME280;56038;46.080;11.116;2022-09-29T17:12:29;97834.88;;;14.51;79.95
68988;BME280;56038;46.080;11.116;2022-09-29T17:17:31;97835.38;;;14.56;80.90
68988;BME280;56038;46.080;11.116;2022-09-29T17:22:34;97854.22;;;14.61;81.12
68988;BME280;56038;46.080;11.116;2022-09-29T17:27:38;97861.28;;;14.49;79.19
68988;BME280;56038;46.080;11.116;2022-09-29T17:32:58;97850.06;;;14.47;79.66
68988;BME280;56038;46.080;11.116;2022-09-29T17:38:00;97851.25;;;14.43;79.24
68988;BME280;56038;46.080;11.116;2022-09-29T17:43:03;97859.72;;;14.35;80.19
68988;BME280;56038;46.080;11.116;2022-09-29T17:48:05;97854.47;;;14.35;80.64
68988;BME280;56038;46.080;11.116;2022-09-29T17:53:07;97857.00;;;14.37;81.02
68988;BME280;56038;46.080;11.116;2022-09-29T17:58:13;97853.03;;;14.43;81.04
68988;BME280;56038;46.080;11.116;2022-09-29T18:03:17;97861.53;;;14.46;81.16
68988;BME280;56038;46.080;11.116;2022-09-29T18:08:18;97864.63;;;14.40;80.97
68988;BME280;56038;46.080;11.116;2022-09-29T18:13:24;97878.84;;;14.37;81.09
68988;BME280;56038;46.080;11.116;2022-09-29T18:18:27;97885.16;;;14.35;80.90
68988;BME280;56038;46.080;11.116;2022-09-29T18:23:29;97880.88;;;14.34;81.63
68988;BME280;56038;46.080;11.116;2022-09-29T18:28:32;97879.06;;;14.34;81.56
68988;BME280;56038;46.080;11.116;2022-09-29T18:33:34;97870.38;;;14.34;81.62
68988;BME280;56038;46.080;11.116;2022-09-29T18:38:36;97883.03;;;14.29;82.22
68988;BME280;56038;46.080;11.116;2022-09-29T18:43:39;97886.03;;;14.24;81.78
68988;BME280;56038;46.080;11.116;2022-09-29T18:48:40;97900.84;;;14.25;81.59
68988;BME280;56038;46.080;11.116;2022-09-29T18:53:43;97909.88;;;14.32;80.97
68988;BME280;56038;46.080;11.116;2022-09-29T18:58:46;97904.41;;;14.24;81.85
68988;BME280;56038;46.080;11.116;2022-09-29T19:03:47;97908.00;;;14.23;81.69
68988;BME280;56038;46.080;11.116;2022-09-29T19:08:49;97915.88;;;14.23;81.65
68988;BME280;56038;46.080;11.116;2022-09-29T19:13:52;97918.63;;;14.11;81.92
68988;BME280;56038;46.080;11.116;2022-09-29T19:18:55;97915.88;;;14.12;82.33
68988;BME280;56038;46.080;11.116;2022-09-29T19:23:57;97927.56;;;14.19;82.28
68988;BME280;56038;46.080;11.116;2022-09-29T19:29:00;97934.72;;;14.28;82.14
68988;BME280;56038;46.080;11.116;2022-09-29T19:34:02;97944.03;;;14.32;81.78
68988;BME280;56038;46.080;11.116;2022-09-29T19:39:03;97950.16;;;14.44;80.81
68988;BME280;56038;46.080;11.116;2022-09-29T19:44:08;97958.38;;;14.28;82.16
68988;BME280;56038;46.080;11.116;2022-09-29T19:49:11;97965.75;;;14.12;82.78
68988;BME280;56038;46.080;11.116;2022-09-29T19:54:13;97967.66;;;14.10;82.57
68988;BME280;56038;46.080;11.116;2022-09-29T19:59:19;97973.41;;;14.15;82.72
68988;BME280;56038;46.080;11.116;2022-09-29T20:04:23;97969.47;;;14.21;82.45
68988;BME280;56038;46.080;11.116;2022-09-29T20:09:26;97962.44;;;14.21;82.24
68988;BME280;56038;46.080;11.116;2022-09-29T20:14:29;97966.03;;;14.20;82.01
68988;BME280;56038;46.080;11.116;2022-09-29T20:19:37;97970.41;;;14.20;81.88
68988;BME280;56038;46.080;11.116;2022-09-29T20:24:39;97975.19;;;14.15;81.83
68988;BME280;56038;46.080;11.116;2022-09-29T20:29:41;97976.16;;;14.14;81.71
68988;BME280;56038;46.080;11.116;2022-09-29T20:34:44;97979.84;;;14.33;80.76
68988;BME280;56038;46.080;11.116;2022-09-29T20:39:46;97994.78;;;14.22;80.85
68988;BME280;56038;46.080;11.116;2022-09-29T20:44:51;97998.94;;;14.13;81.41
68988;BME280;56038;46.080;11.116;2022-09-29T20:49:54;98005.16;;;14.12;81.42
68988;BME280;56038;46.080;11.116;2022-09-29T20:54:56;98009.44;;;14.13;81.48
68988;BME280;56038;46.080;11.116;2022-09-29T21:00:00;98025.91;;;14.15;81.93
68988;BME280;56038;46.080;11.116;2022-09-29T21:05:02;98031.16;;;14.15;81.98
68988;BME280;56038;46.080;11.116;2022-09-29T21:10:05;98023.16;;;14.17;81.70
68988;BME280;56038;46.080;11.116;2022-09-29T21:15:09;98039.53;;;14.09;81.76
68988;BME280;56038;46.080;11.116;2022-09-29T21:20:11;98044.06;;;14.07;81.65
68988;BME280;56038;46.080;11.116;2022-09-29T21:25:12;98044.06;;;14.07;81.54
68988;BME280;56038;46.080;11.116;2022-09-29T21:30:16;98041.44;;;14.07;82.06
68988;BME280;56038;46.080;11.116;2022-09-29T21:35:18;98052.41;;;14.12;81.77
68988;BME280;56038;46.080;11.116;2022-09-29T21:40:22;98049.66;;;14.14;81.90
68988;BME280;56038;46.080;11.116;2022-09-29T21:45:25;98059.34;;;14.13;82.24
68988;BME280;56038;46.080;11.116;2022-09-29T21:50:27;98053.38;;;14.11;82.15
68988;BME280;56038;46.080;11.116;2022-09-29T21:55:28;98055.88;;;14.13;82.19
68988;BME280;56038;46.080;11.116;2022-09-29T22:00:31;98068.16;;;14.12;82.12
68988;BME280;56038;46.080;11.116;2022-09-29T22:05:33;98068.41;;;14.09;82.00
68988;BME280;56038;46.080;11.116;2022-09-29T22:10:34;98071.16;;;14.07;82.04
68988;BME280;56038;46.080;11.116;2022-09-29T22:15:37;98074.91;;;14.27;81.23
68988;BME280;56038;46.080;11.116;2022-09-29T22:20:39;98078.19;;;14.18;81.96
68988;BME280;56038;46.080;11.116;2022-09-29T22:25:41;98080.34;;;14.13;82.10
68988;BME280;56038;46.080;11.116;2022-09-29T22:30:45;98097.28;;;14.09;82.56
68988;BME280;56038;46.080;11.116;2022-09-29T22:35:53;98101.81;;;14.07;82.38
68988;BME280;56038;46.080;11.116;2022-09-29T22:40:55;98101.81;;;14.07;82.63
68988;BME280;56038;46.080;11.116;2022-09-29T22:45:58;98095.53;;;14.21;82.03
68988;BME280;56038;46.080;11.116;2022-09-29T22:51:00;98102.16;;;14.02;82.04
68988;BME280;56038;46.080;11.116;2022-09-29T22:56:08;98106.00;;;13.74;83.52
68988;BME280;56038;46.080;11.116;2022-09-29T23:01:15;98115.25;;;13.67;83.88
68988;BME280;56038;46.080;11.116;2022-09-29T23:06:17;98115.84;;;13.71;83.69
68988;BME280;56038;46.080;11.116;2022-09-29T23:11:18;98121.28;;;13.81;83.57
68988;BME280;56038;46.080;11.116;2022-09-29T23:16:22;98115.56;;;13.87;83.89
68988;BME280;56038;46.080;11.116;2022-09-29T23:21:24;98118.72;;;13.92;83.62
68988;BME280;56038;46.080;11.116;2022-09-29T23:26:26;98116.69;;;13.95;83.68
68988;BME280;56038;46.080;11.116;2022-09-29T23:31:29;98117.53;;;13.96;83.02
68988;BME280;56038;46.080;11.116;2022-09-29T23:36:31;98127.31;;;13.94;83.35
68988;BME280;56038;46.080;11.116;2022-09-29T23:41:33;98123.00;;;13.93;83.10
68988;BME280;56038;46.080;11.116;2022-09-29T23:46:37;98132.56;;;13.94;83.16
68988;BME280;56038;46.080;11.116;2022-09-29T23:51:41;98130.66;;;13.96;83.14
68988;BME280;56038;46.080;11.116;2022-09-29T23:56:43;98134.94;;;13.97;82.87
